Weather at Andings Landing Seaplane Base

Public forecast

Using degrees Fahrenheit for public forecast. Weather courtesy of forecast.io.

Closest aviation weather report (METAR) to Andings Landing Seaplane Base

Closest report is Flying Cloud Airport, 7.2 nm (13.3 km) ESE. Retrieved 2021/07/27 23:53 UTC (1 hour ago):

KFCM 272353Z 00000KT 10SM CLR 33/23 A2993 RMK AO2 SLP128 T03280233 10344 20317 55003

Closest aviation forecast (TAF) to Andings Landing Seaplane Base

Forecast is more than 12 hours old.

Closest forecast is Flying Cloud Airport, 7.2 nm (13.3 km) ESE. Retrieved 2018/02/05 00:21 UTC (3 years ago):

TAF KFCM 052320Z 0600/0624 30007KT P6SM FEW200 FM061000 VRB03KT P6SM FEW250 FM061800 22006KT P6SM SCT100 BKN250 AMD NOT SKED